sensor_id;sensor_type;location;lat;lon;timestamp;pressure;altitude;pressure_sealevel;temperature
12061;BMP180;6091;51.432;6.880;2023-09-19T00:00:57;100094.00;;;28.80
12061;BMP180;6091;51.432;6.880;2023-09-19T00:03:24;100102.00;;;28.80
12061;BMP180;6091;51.432;6.880;2023-09-19T00:05:57;100104.00;;;28.80
12061;BMP180;6091;51.432;6.880;2023-09-19T00:08:25;100108.00;;;28.80
12061;BMP180;6091;51.432;6.880;2023-09-19T00:10:54;100108.00;;;28.80
12061;BMP180;6091;51.432;6.880;2023-09-19T00:13:21;100111.00;;;28.70
12061;BMP180;6091;51.432;6.880;2023-09-19T00:15:49;100107.00;;;28.70
12061;BMP180;6091;51.432;6.880;2023-09-19T00:18:21;100114.00;;;28.70
12061;BMP180;6091;51.432;6.880;2023-09-19T00:20:50;100110.00;;;28.70
12061;BMP180;6091;51.432;6.880;2023-09-19T00:23:19;100112.00;;;28.70
12061;BMP180;6091;51.432;6.880;2023-09-19T00:25:48;100114.00;;;28.70
12061;BMP180;6091;51.432;6.880;2023-09-19T00:28:15;100116.00;;;28.70
12061;BMP180;6091;51.432;6.880;2023-09-19T00:30:45;100116.00;;;28.70
12061;BMP180;6091;51.432;6.880;2023-09-19T00:33:18;100120.00;;;28.70
12061;BMP180;6091;51.432;6.880;2023-09-19T00:35:51;100119.00;;;28.70
12061;BMP180;6091;51.432;6.880;2023-09-19T00:38:20;100127.00;;;28.70
12061;BMP180;6091;51.432;6.880;2023-09-19T00:40:55;100122.00;;;28.60
12061;BMP180;6091;51.432;6.880;2023-09-19T00:43:27;100120.00;;;28.60
12061;BMP180;6091;51.432;6.880;2023-09-19T00:45:56;100125.00;;;28.60
12061;BMP180;6091;51.432;6.880;2023-09-19T00:48:25;100133.00;;;28.60
12061;BMP180;6091;51.432;6.880;2023-09-19T00:50:57;100118.00;;;28.60
12061;BMP180;6091;51.432;6.880;2023-09-19T00:53:26;100131.00;;;28.60
12061;BMP180;6091;51.432;6.880;2023-09-19T00:55:54;100134.00;;;28.60
12061;BMP180;6091;51.432;6.880;2023-09-19T00:58:23;100142.00;;;28.60
12061;BMP180;6091;51.432;6.880;2023-09-19T01:00:50;100138.00;;;28.60
12061;BMP180;6091;51.432;6.880;2023-09-19T01:03:18;100139.00;;;28.60
12061;BMP180;6091;51.432;6.880;2023-09-19T01:05:46;100145.00;;;28.60
12061;BMP180;6091;51.432;6.880;2023-09-19T01:08:13;100141.00;;;28.60
12061;BMP180;6091;51.432;6.880;2023-09-19T01:10:55;100146.00;;;28.50
12061;BMP180;6091;51.432;6.880;2023-09-19T01:21:57;100159.00;;;28.50
12061;BMP180;6091;51.432;6.880;2023-09-19T01:30:17;100163.00;;;28.50
12061;BMP180;6091;51.432;6.880;2023-09-19T01:32:46;100169.00;;;28.40
12061;BMP180;6091;51.432;6.880;2023-09-19T01:35:13;100168.00;;;28.40
12061;BMP180;6091;51.432;6.880;2023-09-19T01:37:40;100179.00;;;28.40
12061;BMP180;6091;51.432;6.880;2023-09-19T01:40:18;100181.00;;;28.50
12061;BMP180;6091;51.432;6.880;2023-09-19T01:48:41;100181.00;;;28.40
12061;BMP180;6091;51.432;6.880;2023-09-19T01:51:24;100182.00;;;28.40
12061;BMP180;6091;51.432;6.880;2023-09-19T01:54:11;100185.00;;;28.40
12061;BMP180;6091;51.432;6.880;2023-09-19T01:56:54;100179.00;;;28.40
12061;BMP180;6091;51.432;6.880;2023-09-19T01:59:36;100188.00;;;28.40
12061;BMP180;6091;51.432;6.880;2023-09-19T02:02:07;100189.00;;;28.40
12061;BMP180;6091;51.432;6.880;2023-09-19T02:04:35;100187.00;;;28.30
12061;BMP180;6091;51.432;6.880;2023-09-19T02:07:03;100194.00;;;28.40
12061;BMP180;6091;51.432;6.880;2023-09-19T02:09:32;100196.00;;;28.30
12061;BMP180;6091;51.432;6.880;2023-09-19T02:12:02;100203.00;;;28.30
12061;BMP180;6091;51.432;6.880;2023-09-19T02:14:31;100197.00;;;28.30
12061;BMP180;6091;51.432;6.880;2023-09-19T02:16:58;100196.00;;;28.30
12061;BMP180;6091;51.432;6.880;2023-09-19T02:19:27;100206.00;;;28.30
12061;BMP180;6091;51.432;6.880;2023-09-19T02:21:55;100208.00;;;28.30
12061;BMP180;6091;51.432;6.880;2023-09-19T02:24:22;100207.00;;;28.30
12061;BMP180;6091;51.432;6.880;2023-09-19T02:26:53;100218.00;;;28.30
12061;BMP180;6091;51.432;6.880;2023-09-19T02:29:21;100218.00;;;28.30
12061;BMP180;6091;51.432;6.880;2023-09-19T02:31:49;100218.00;;;28.30
12061;BMP180;6091;51.432;6.880;2023-09-19T02:34:16;100219.00;;;28.30
12061;BMP180;6091;51.432;6.880;2023-09-19T02:36:43;100219.00;;;28.30
12061;BMP180;6091;51.432;6.880;2023-09-19T02:39:12;100218.00;;;28.30
12061;BMP180;6091;51.432;6.880;2023-09-19T02:41:39;100217.00;;;28.30
12061;BMP180;6091;51.432;6.880;2023-09-19T02:44:08;100221.00;;;28.30
12061;BMP180;6091;51.432;6.880;2023-09-19T02:46:35;100221.00;;;28.30
12061;BMP180;6091;51.432;6.880;2023-09-19T02:49:06;100226.00;;;28.30
12061;BMP180;6091;51.432;6.880;2023-09-19T02:51:33;100230.00;;;28.30
12061;BMP180;6091;51.432;6.880;2023-09-19T02:54:01;100233.00;;;28.30
12061;BMP180;6091;51.432;6.880;2023-09-19T02:56:30;100229.00;;;28.30
12061;BMP180;6091;51.432;6.880;2023-09-19T02:59:00;100238.00;;;28.20
12061;BMP180;6091;51.432;6.880;2023-09-19T03:01:27;100237.00;;;28.20
12061;BMP180;6091;51.432;6.880;2023-09-19T03:03:55;100239.00;;;28.20
12061;BMP180;6091;51.432;6.880;2023-09-19T03:06:22;100248.00;;;28.20
12061;BMP180;6091;51.432;6.880;2023-09-19T03:08:50;100252.00;;;28.20
12061;BMP180;6091;51.432;6.880;2023-09-19T03:11:18;100249.00;;;28.20
12061;BMP180;6091;51.432;6.880;2023-09-19T03:13:53;100240.00;;;28.20
12061;BMP180;6091;51.432;6.880;2023-09-19T03:16:21;100243.00;;;28.20
12061;BMP180;6091;51.432;6.880;2023-09-19T03:18:52;100240.00;;;28.20
12061;BMP180;6091;51.432;6.880;2023-09-19T03:21:19;100237.00;;;28.20
12061;BMP180;6091;51.432;6.880;2023-09-19T03:23:46;100242.00;;;28.20
12061;BMP180;6091;51.432;6.880;2023-09-19T03:26:14;100241.00;;;28.20
12061;BMP180;6091;51.432;6.880;2023-09-19T03:28:43;100232.00;;;28.20
12061;BMP180;6091;51.432;6.880;2023-09-19T03:31:10;100236.00;;;28.20
12061;BMP180;6091;51.432;6.880;2023-09-19T03:33:38;100243.00;;;28.20
12061;BMP180;6091;51.432;6.880;2023-09-19T03:36:05;100245.00;;;28.10
12061;BMP180;6091;51.432;6.880;2023-09-19T03:38:33;100240.00;;;28.10
12061;BMP180;6091;51.432;6.880;2023-09-19T03:41:02;100248.00;;;28.10
12061;BMP180;6091;51.432;6.880;2023-09-19T03:43:31;100247.00;;;28.10
12061;BMP180;6091;51.432;6.880;2023-09-19T03:46:02;100247.00;;;28.10
12061;BMP180;6091;51.432;6.880;2023-09-19T03:48:31;100252.00;;;28.10
12061;BMP180;6091;51.432;6.880;2023-09-19T03:50:58;100251.00;;;28.10
12061;BMP180;6091;51.432;6.880;2023-09-19T03:53:25;100249.00;;;28.10
12061;BMP180;6091;51.432;6.880;2023-09-19T03:55:52;100244.00;;;28.10
12061;BMP180;6091;51.432;6.880;2023-09-19T03:58:20;100243.00;;;28.10
12061;BMP180;6091;51.432;6.880;2023-09-19T04:00:47;100243.00;;;28.10
12061;BMP180;6091;51.432;6.880;2023-09-19T04:03:16;100247.00;;;28.10
12061;BMP180;6091;51.432;6.880;2023-09-19T04:05:48;100246.00;;;28.10
12061;BMP180;6091;51.432;6.880;2023-09-19T04:08:15;100240.00;;;28.10
12061;BMP180;6091;51.432;6.880;2023-09-19T04:10:43;100237.00;;;28.10
12061;BMP180;6091;51.432;6.880;2023-09-19T04:13:12;100243.00;;;28.10
12061;BMP180;6091;51.432;6.880;2023-09-19T04:15:39;100246.00;;;28.00
12061;BMP180;6091;51.432;6.880;2023-09-19T04:18:07;100244.00;;;28.10
12061;BMP180;6091;51.432;6.880;2023-09-19T04:20:34;100246.00;;;28.10
12061;BMP180;6091;51.432;6.880;2023-09-19T04:23:02;100247.00;;;28.00
12061;BMP180;6091;51.432;6.880;2023-09-19T04:25:29;100250.00;;;28.00
12061;BMP180;6091;51.432;6.880;2023-09-19T04:27:56;100247.00;;;28.00
12061;BMP180;6091;51.432;6.880;2023-09-19T04:30:24;100255.00;;;28.00
12061;BMP180;6091;51.432;6.880;2023-09-19T04:32:54;100251.00;;;28.00
12061;BMP180;6091;51.432;6.880;2023-09-19T04:35:21;100250.00;;;28.00
12061;BMP180;6091;51.432;6.880;2023-09-19T04:37:50;100249.00;;;28.00
12061;BMP180;6091;51.432;6.880;2023-09-19T04:40:17;100242.00;;;28.00
12061;BMP180;6091;51.432;6.880;2023-09-19T04:42:53;100240.00;;;28.00
12061;BMP180;6091;51.432;6.880;2023-09-19T04:45:28;100249.00;;;28.00
12061;BMP180;6091;51.432;6.880;2023-09-19T04:47:55;100251.00;;;28.00
12061;BMP180;6091;51.432;6.880;2023-09-19T04:50:23;100250.00;;;28.00
12061;BMP180;6091;51.432;6.880;2023-09-19T04:52:54;100253.00;;;28.00
12061;BMP180;6091;51.432;6.880;2023-09-19T04:55:22;100248.00;;;28.00
12061;BMP180;6091;51.432;6.880;2023-09-19T04:57:50;100253.00;;;28.00
12061;BMP180;6091;51.432;6.880;2023-09-19T05:00:19;100258.00;;;28.00
12061;BMP180;6091;51.432;6.880;2023-09-19T05:02:55;100265.00;;;28.00
12061;BMP180;6091;51.432;6.880;2023-09-19T05:05:26;100269.00;;;27.90
12061;BMP180;6091;51.432;6.880;2023-09-19T05:07:53;100272.00;;;27.90
12061;BMP180;6091;51.432;6.880;2023-09-19T05:10:22;100278.00;;;27.90
12061;BMP180;6091;51.432;6.880;2023-09-19T05:12:52;100289.00;;;27.90
12061;BMP180;6091;51.432;6.880;2023-09-19T05:15:20;100289.00;;;27.90
12061;BMP180;6091;51.432;6.880;2023-09-19T05:17:51;100300.00;;;27.90
12061;BMP180;6091;51.432;6.880;2023-09-19T05:20:23;100305.00;;;27.90
12061;BMP180;6091;51.432;6.880;2023-09-19T05:23:05;100315.00;;;27.90
12061;BMP180;6091;51.432;6.880;2023-09-19T05:25:36;100316.00;;;27.90
12061;BMP180;6091;51.432;6.880;2023-09-19T05:28:09;100326.00;;;27.90
12061;BMP180;6091;51.432;6.880;2023-09-19T05:30:38;100319.00;;;27.90
12061;BMP180;6091;51.432;6.880;2023-09-19T05:33:07;100311.00;;;27.90
12061;BMP180;6091;51.432;6.880;2023-09-19T05:35:35;100316.00;;;27.90
12061;BMP180;6091;51.432;6.880;2023-09-19T05:38:09;100325.00;;;27.90
12061;BMP180;6091;51.432;6.880;2023-09-19T05:40:36;100334.00;;;27.90
12061;BMP180;6091;51.432;6.880;2023-09-19T05:43:05;100339.00;;;27.90
12061;BMP180;6091;51.432;6.880;2023-09-19T05:45:32;100334.00;;;27.90
12061;BMP180;6091;51.432;6.880;2023-09-19T05:48:12;100335.00;;;27.90
12061;BMP180;6091;51.432;6.880;2023-09-19T05:50:41;100338.00;;;27.80
12061;BMP180;6091;51.432;6.880;2023-09-19T05:53:08;100331.00;;;27.90
12061;BMP180;6091;51.432;6.880;2023-09-19T05:55:38;100346.00;;;27.90
12061;BMP180;6091;51.432;6.880;2023-09-19T05:58:06;100347.00;;;27.90
12061;BMP180;6091;51.432;6.880;2023-09-19T06:00:33;100354.00;;;27.90
12061;BMP180;6091;51.432;6.880;2023-09-19T06:03:04;100349.00;;;27.90
12061;BMP180;6091;51.432;6.880;2023-09-19T06:05:32;100342.00;;;27.80
12061;BMP180;6091;51.432;6.880;2023-09-19T06:07:59;100343.00;;;27.90
12061;BMP180;6091;51.432;6.880;2023-09-19T06:10:35;100346.00;;;27.80
12061;BMP180;6091;51.432;6.880;2023-09-19T06:13:05;100338.00;;;27.90
12061;BMP180;6091;51.432;6.880;2023-09-19T06:15:33;100342.00;;;27.80
12061;BMP180;6091;51.432;6.880;2023-09-19T06:18:04;100343.00;;;27.90
12061;BMP180;6091;51.432;6.880;2023-09-19T06:20:32;100346.00;;;27.90
12061;BMP180;6091;51.432;6.880;2023-09-19T06:23:02;100335.00;;;27.90
12061;BMP180;6091;51.432;6.880;2023-09-19T06:25:33;100339.00;;;27.90
12061;BMP180;6091;51.432;6.880;2023-09-19T06:28:01;100341.00;;;27.90
12061;BMP180;6091;51.432;6.880;2023-09-19T06:30:32;100342.00;;;27.90
12061;BMP180;6091;51.432;6.880;2023-09-19T06:33:04;100342.00;;;27.90
12061;BMP180;6091;51.432;6.880;2023-09-19T06:35:35;100337.00;;;27.90
12061;BMP180;6091;51.432;6.880;2023-09-19T06:38:03;100337.00;;;27.90
12061;BMP180;6091;51.432;6.880;2023-09-19T06:40:31;100338.00;;;27.90
12061;BMP180;6091;51.432;6.880;2023-09-19T06:42:58;100348.00;;;27.90
12061;BMP180;6091;51.432;6.880;2023-09-19T06:45:29;100348.00;;;27.90
12061;BMP180;6091;51.432;6.880;2023-09-19T06:47:57;100352.00;;;27.90
12061;BMP180;6091;51.432;6.880;2023-09-19T06:50:27;100355.00;;;27.90
12061;BMP180;6091;51.432;6.880;2023-09-19T06:52:55;100362.00;;;28.00
12061;BMP180;6091;51.432;6.880;2023-09-19T06:55:38;100357.00;;;28.00
12061;BMP180;6091;51.432;6.880;2023-09-19T06:58:06;100352.00;;;28.00
12061;BMP180;6091;51.432;6.880;2023-09-19T07:00:33;100351.00;;;28.00
12061;BMP180;6091;51.432;6.880;2023-09-19T07:05:48;100363.00;;;28.10
12061;BMP180;6091;51.432;6.880;2023-09-19T07:08:15;100367.00;;;28.10
12061;BMP180;6091;51.432;6.880;2023-09-19T07:10:43;100367.00;;;28.10
12061;BMP180;6091;51.432;6.880;2023-09-19T07:13:16;100378.00;;;28.10
12061;BMP180;6091;51.432;6.880;2023-09-19T07:15:44;100374.00;;;28.10
12061;BMP180;6091;51.432;6.880;2023-09-19T07:18:16;100378.00;;;28.20
12061;BMP180;6091;51.432;6.880;2023-09-19T07:20:45;100374.00;;;28.20
12061;BMP180;6091;51.432;6.880;2023-09-19T07:23:20;100379.00;;;28.20
12061;BMP180;6091;51.432;6.880;2023-09-19T07:25:50;100379.00;;;28.20
12061;BMP180;6091;51.432;6.880;2023-09-19T07:28:20;100384.00;;;28.20
12061;BMP180;6091;51.432;6.880;2023-09-19T07:30:47;100376.00;;;28.30
12061;BMP180;6091;51.432;6.880;2023-09-19T07:36:00;100387.00;;;28.30
12061;BMP180;6091;51.432;6.880;2023-09-19T07:38:28;100387.00;;;28.30
12061;BMP180;6091;51.432;6.880;2023-09-19T07:41:02;100388.00;;;28.40
12061;BMP180;6091;51.432;6.880;2023-09-19T07:43:29;100390.00;;;28.40
12061;BMP180;6091;51.432;6.880;2023-09-19T07:45:58;100389.00;;;28.40
12061;BMP180;6091;51.432;6.880;2023-09-19T07:48:29;100384.00;;;28.40
12061;BMP180;6091;51.432;6.880;2023-09-19T07:51:02;100375.00;;;28.50
12061;BMP180;6091;51.432;6.880;2023-09-19T07:53:29;100383.00;;;28.50
12061;BMP180;6091;51.432;6.880;2023-09-19T07:56:08;100391.00;;;28.50
12061;BMP180;6091;51.432;6.880;2023-09-19T07:58:44;100394.00;;;28.50
12061;BMP180;6091;51.432;6.880;2023-09-19T08:01:12;100395.00;;;28.50
12061;BMP180;6091;51.432;6.880;2023-09-19T08:03:40;100402.00;;;28.50
12061;BMP180;6091;51.432;6.880;2023-09-19T08:06:10;100406.00;;;28.60
12061;BMP180;6091;51.432;6.880;2023-09-19T08:08:37;100412.00;;;28.60
12061;BMP180;6091;51.432;6.880;2023-09-19T08:11:06;100405.00;;;28.60
12061;BMP180;6091;51.432;6.880;2023-09-19T08:13:39;100411.00;;;28.60
12061;BMP180;6091;51.432;6.880;2023-09-19T08:16:16;100415.00;;;28.60
12061;BMP180;6091;51.432;6.880;2023-09-19T08:18:48;100404.00;;;28.70
12061;BMP180;6091;51.432;6.880;2023-09-19T08:21:20;100406.00;;;28.70
12061;BMP180;6091;51.432;6.880;2023-09-19T08:23:47;100410.00;;;28.70
12061;BMP180;6091;51.432;6.880;2023-09-19T08:26:15;100408.00;;;28.70
12061;BMP180;6091;51.432;6.880;2023-09-19T08:28:46;100417.00;;;28.70
12061;BMP180;6091;51.432;6.880;2023-09-19T08:31:13;100408.00;;;28.70
12061;BMP180;6091;51.432;6.880;2023-09-19T08:33:40;100415.00;;;28.80
12061;BMP180;6091;51.432;6.880;2023-09-19T08:36:09;100412.00;;;28.80
12061;BMP180;6091;51.432;6.880;2023-09-19T08:38:36;100413.00;;;28.80
12061;BMP180;6091;51.432;6.880;2023-09-19T08:41:08;100419.00;;;28.90
12061;BMP180;6091;51.432;6.880;2023-09-19T08:43:35;100423.00;;;28.80
12061;BMP180;6091;51.432;6.880;2023-09-19T08:46:16;100425.00;;;28.90
12061;BMP180;6091;51.432;6.880;2023-09-19T08:49:14;100425.00;;;28.90
12061;BMP180;6091;51.432;6.880;2023-09-19T08:51:45;100421.00;;;28.90
12061;BMP180;6091;51.432;6.880;2023-09-19T08:54:29;100418.00;;;29.00
12061;BMP180;6091;51.432;6.880;2023-09-19T08:57:06;100409.00;;;29.00
12061;BMP180;6091;51.432;6.880;2023-09-19T08:59:39;100412.00;;;29.00
12061;BMP180;6091;51.432;6.880;2023-09-19T09:02:15;100415.00;;;29.00
12061;BMP180;6091;51.432;6.880;2023-09-19T09:04:44;100402.00;;;29.10
12061;BMP180;6091;51.432;6.880;2023-09-19T09:07:13;100423.00;;;29.10
12061;BMP180;6091;51.432;6.880;2023-09-19T09:09:40;100415.00;;;29.10
12061;BMP180;6091;51.432;6.880;2023-09-19T09:12:12;100423.00;;;29.10
12061;BMP180;6091;51.432;6.880;2023-09-19T09:14:44;100423.00;;;29.20
12061;BMP180;6091;51.432;6.880;2023-09-19T09:17:14;100412.00;;;29.20
12061;BMP180;6091;51.432;6.880;2023-09-19T09:19:42;100418.00;;;29.20
12061;BMP180;6091;51.432;6.880;2023-09-19T09:22:11;100407.00;;;29.20
12061;BMP180;6091;51.432;6.880;2023-09-19T09:24:55;100413.00;;;29.30
12061;BMP180;6091;51.432;6.880;2023-09-19T09:27:26;100405.00;;;29.30
12061;BMP180;6091;51.432;6.880;2023-09-19T09:29:56;100412.00;;;29.30
12061;BMP180;6091;51.432;6.880;2023-09-19T09:32:30;100406.00;;;29.40
12061;BMP180;6091;51.432;6.880;2023-09-19T09:35:07;100400.00;;;29.40
12061;BMP180;6091;51.432;6.880;2023-09-19T09:37:43;100397.00;;;29.40
12061;BMP180;6091;51.432;6.880;2023-09-19T09:40:11;100399.00;;;29.40
12061;BMP180;6091;51.432;6.880;2023-09-19T09:42:41;100400.00;;;29.50
12061;BMP180;6091;51.432;6.880;2023-09-19T09:45:17;100410.00;;;29.50
12061;BMP180;6091;51.432;6.880;2023-09-19T09:47:49;100412.00;;;29.50
12061;BMP180;6091;51.432;6.880;2023-09-19T09:52:56;100411.00;;;29.60
12061;BMP180;6091;51.432;6.880;2023-09-19T09:56:07;100409.00;;;29.50
12061;BMP180;6091;51.432;6.880;2023-09-19T09:58:38;100409.00;;;29.60
12061;BMP180;6091;51.432;6.880;2023-09-19T10:01:07;100418.00;;;29.60
12061;BMP180;6091;51.432;6.880;2023-09-19T10:03:43;100410.00;;;29.60
12061;BMP180;6091;51.432;6.880;2023-09-19T10:06:18;100407.00;;;29.70
12061;BMP180;6091;51.432;6.880;2023-09-19T10:09:07;100422.00;;;29.70
12061;BMP180;6091;51.432;6.880;2023-09-19T10:11:45;100407.00;;;29.80
12061;BMP180;6091;51.432;6.880;2023-09-19T10:14:16;100401.00;;;29.90
12061;BMP180;6091;51.432;6.880;2023-09-19T10:16:48;100391.00;;;30.10
12061;BMP180;6091;51.432;6.880;2023-09-19T10:19:50;100391.00;;;30.20
12061;BMP180;6091;51.432;6.880;2023-09-19T10:22:21;100393.00;;;30.20
12061;BMP180;6091;51.432;6.880;2023-09-19T10:24:49;100389.00;;;30.30
12061;BMP180;6091;51.432;6.880;2023-09-19T10:27:26;100390.00;;;30.30
12061;BMP180;6091;51.432;6.880;2023-09-19T10:29:55;100384.00;;;30.30
12061;BMP180;6091;51.432;6.880;2023-09-19T10:32:28;100396.00;;;30.40
12061;BMP180;6091;51.432;6.880;2023-09-19T10:35:02;100386.00;;;30.40
12061;BMP180;6091;51.432;6.880;2023-09-19T10:37:34;100390.00;;;30.50
12061;BMP180;6091;51.432;6.880;2023-09-19T10:40:01;100385.00;;;30.50
12061;BMP180;6091;51.432;6.880;2023-09-19T10:42:32;100392.00;;;30.60
12061;BMP180;6091;51.432;6.880;2023-09-19T10:45:02;100397.00;;;30.70
12061;BMP180;6091;51.432;6.880;2023-09-19T10:47:34;100391.00;;;30.80
12061;BMP180;6091;51.432;6.880;2023-09-19T10:50:06;100387.00;;;30.90
12061;BMP180;6091;51.432;6.880;2023-09-19T10:52:42;100373.00;;;30.90
12061;BMP180;6091;51.432;6.880;2023-09-19T10:55:17;100376.00;;;30.90
12061;BMP180;6091;51.432;6.880;2023-09-19T10:57:46;100384.00;;;31.00
12061;BMP180;6091;51.432;6.880;2023-09-19T11:00:15;100384.00;;;31.00
12061;BMP180;6091;51.432;6.880;2023-09-19T11:05:40;100389.00;;;31.10
12061;BMP180;6091;51.432;6.880;2023-09-19T11:08:08;100390.00;;;31.10
12061;BMP180;6091;51.432;6.880;2023-09-19T11:13:27;100386.00;;;31.10
12061;BMP180;6091;51.432;6.880;2023-09-19T11:27:12;100376.00;;;31.10
12061;BMP180;6091;51.432;6.880;2023-09-19T11:29:45;100378.00;;;31.00
12061;BMP180;6091;51.432;6.880;2023-09-19T11:32:12;100382.00;;;31.00
12061;BMP180;6091;51.432;6.880;2023-09-19T11:34:45;100375.00;;;31.10
12061;BMP180;6091;51.432;6.880;2023-09-19T11:40:09;100382.00;;;31.20
12061;BMP180;6091;51.432;6.880;2023-09-19T11:42:48;100375.00;;;31.30
12061;BMP180;6091;51.432;6.880;2023-09-19T11:48:18;100387.00;;;31.70
12061;BMP180;6091;51.432;6.880;2023-09-19T11:50:45;100375.00;;;31.90
12061;BMP180;6091;51.432;6.880;2023-09-19T11:53:14;100384.00;;;32.00
12061;BMP180;6091;51.432;6.880;2023-09-19T11:55:43;100388.00;;;32.10
12061;BMP180;6091;51.432;6.880;2023-09-19T11:58:14;100377.00;;;32.10
12061;BMP180;6091;51.432;6.880;2023-09-19T12:00:45;100377.00;;;32.00
12061;BMP180;6091;51.432;6.880;2023-09-19T12:03:13;100365.00;;;32.00
12061;BMP180;6091;51.432;6.880;2023-09-19T12:05:43;100371.00;;;31.90
12061;BMP180;6091;51.432;6.880;2023-09-19T12:08:14;100371.00;;;32.00
12061;BMP180;6091;51.432;6.880;2023-09-19T12:10:50;100368.00;;;32.10
12061;BMP180;6091;51.432;6.880;2023-09-19T12:13:23;100357.00;;;32.30
12061;BMP180;6091;51.432;6.880;2023-09-19T12:15:50;100364.00;;;32.50
12061;BMP180;6091;51.432;6.880;2023-09-19T12:18:30;100354.00;;;32.70
12061;BMP180;6091;51.432;6.880;2023-09-19T12:20:58;100371.00;;;32.90
12061;BMP180;6091;51.432;6.880;2023-09-19T12:23:25;100364.00;;;33.10
12061;BMP180;6091;51.432;6.880;2023-09-19T12:25:54;100366.00;;;33.40
12061;BMP180;6091;51.432;6.880;2023-09-19T12:28:27;100359.00;;;33.70
12061;BMP180;6091;51.432;6.880;2023-09-19T12:31:07;100363.00;;;33.90
12061;BMP180;6091;51.432;6.880;2023-09-19T12:33:38;100358.00;;;34.20
12061;BMP180;6091;51.432;6.880;2023-09-19T12:36:28;100347.00;;;34.50
12061;BMP180;6091;51.432;6.880;2023-09-19T12:39:01;100355.00;;;34.60
12061;BMP180;6091;51.432;6.880;2023-09-19T12:41:37;100352.00;;;34.90
12061;BMP180;6091;51.432;6.880;2023-09-19T12:44:05;100340.00;;;35.10
12061;BMP180;6091;51.432;6.880;2023-09-19T12:46:37;100346.00;;;35.30
12061;BMP180;6091;51.432;6.880;2023-09-19T12:49:18;100342.00;;;35.50
12061;BMP180;6091;51.432;6.880;2023-09-19T12:51:49;100347.00;;;35.70
12061;BMP180;6091;51.432;6.880;2023-09-19T12:54:16;100345.00;;;35.80
12061;BMP180;6091;51.432;6.880;2023-09-19T12:56:47;100347.00;;;35.90
12061;BMP180;6091;51.432;6.880;2023-09-19T12:59:16;100341.00;;;35.90
12061;BMP180;6091;51.432;6.880;2023-09-19T13:01:43;100336.00;;;35.80
12061;BMP180;6091;51.432;6.880;2023-09-19T13:04:20;100336.00;;;35.60
12061;BMP180;6091;51.432;6.880;2023-09-19T13:06:59;100334.00;;;35.40
12061;BMP180;6091;51.432;6.880;2023-09-19T13:09:28;100342.00;;;35.00
12061;BMP180;6091;51.432;6.880;2023-09-19T13:12:03;100360.00;;;34.70
12061;BMP180;6091;51.432;6.880;2023-09-19T13:14:30;100350.00;;;34.30
12061;BMP180;6091;51.432;6.880;2023-09-19T13:17:07;100339.00;;;33.80
12061;BMP180;6091;51.432;6.880;2023-09-19T13:19:51;100350.00;;;33.40
12061;BMP180;6091;51.432;6.880;2023-09-19T13:22:41;100350.00;;;32.90
12061;BMP180;6091;51.432;6.880;2023-09-19T13:25:17;100349.00;;;32.60
12061;BMP180;6091;51.432;6.880;2023-09-19T13:27:56;100344.00;;;32.30
12061;BMP180;6091;51.432;6.880;2023-09-19T13:30:26;100330.00;;;32.00
12061;BMP180;6091;51.432;6.880;2023-09-19T13:33:09;100353.00;;;31.70
12061;BMP180;6091;51.432;6.880;2023-09-19T13:35:39;100342.00;;;31.50
12061;BMP180;6091;51.432;6.880;2023-09-19T13:38:09;100337.00;;;31.30
12061;BMP180;6091;51.432;6.880;2023-09-19T13:40:37;100338.00;;;31.10
12061;BMP180;6091;51.432;6.880;2023-09-19T13:43:06;100336.00;;;30.90
12061;BMP180;6091;51.432;6.880;2023-09-19T13:45:34;100332.00;;;30.70
12061;BMP180;6091;51.432;6.880;2023-09-19T13:48:01;100346.00;;;30.60
12061;BMP180;6091;51.432;6.880;2023-09-19T13:50:30;100335.00;;;30.40
12061;BMP180;6091;51.432;6.880;2023-09-19T13:52:58;100335.00;;;30.20
12061;BMP180;6091;51.432;6.880;2023-09-19T13:55:27;100338.00;;;30.10
12061;BMP180;6091;51.432;6.880;2023-09-19T13:57:55;100337.00;;;29.90
12061;BMP180;6091;51.432;6.880;2023-09-19T14:00:23;100336.00;;;29.80
12061;BMP180;6091;51.432;6.880;2023-09-19T14:02:51;100335.00;;;29.70
12061;BMP180;6091;51.432;6.880;2023-09-19T14:05:19;100322.00;;;29.50
12061;BMP180;6091;51.432;6.880;2023-09-19T14:07:48;100326.00;;;29.40
12061;BMP180;6091;51.432;6.880;2023-09-19T14:10:18;100323.00;;;29.30
12061;BMP180;6091;51.432;6.880;2023-09-19T14:12:45;100331.00;;;29.20
12061;BMP180;6091;51.432;6.880;2023-09-19T14:15:13;100323.00;;;29.10
12061;BMP180;6091;51.432;6.880;2023-09-19T14:17:40;100317.00;;;29.10
12061;BMP180;6091;51.432;6.880;2023-09-19T14:20:14;100324.00;;;29.00
12061;BMP180;6091;51.432;6.880;2023-09-19T14:22:42;100339.00;;;28.90
12061;BMP180;6091;51.432;6.880;2023-09-19T14:25:09;100339.00;;;28.90
12061;BMP180;6091;51.432;6.880;2023-09-19T14:27:37;100335.00;;;28.80
12061;BMP180;6091;51.432;6.880;2023-09-19T14:30:06;100340.00;;;28.70
12061;BMP180;6091;51.432;6.880;2023-09-19T14:32:33;100338.00;;;28.70
12061;BMP180;6091;51.432;6.880;2023-09-19T14:35:00;100335.00;;;28.60
12061;BMP180;6091;51.432;6.880;2023-09-19T14:37:27;100326.00;;;28.60
12061;BMP180;6091;51.432;6.880;2023-09-19T14:39:55;100320.00;;;28.50
12061;BMP180;6091;51.432;6.880;2023-09-19T14:42:22;100326.00;;;28.50
12061;BMP180;6091;51.432;6.880;2023-09-19T14:44:50;100325.00;;;28.40
12061;BMP180;6091;51.432;6.880;2023-09-19T14:47:17;100323.00;;;28.40
12061;BMP180;6091;51.432;6.880;2023-09-19T14:49:44;100320.00;;;28.40
12061;BMP180;6091;51.432;6.880;2023-09-19T14:52:12;100326.00;;;28.30
12061;BMP180;6091;51.432;6.880;2023-09-19T14:54:43;100325.00;;;28.30
12061;BMP180;6091;51.432;6.880;2023-09-19T14:57:10;100325.00;;;28.30
12061;BMP180;6091;51.432;6.880;2023-09-19T14:59:38;100332.00;;;28.20
12061;BMP180;6091;51.432;6.880;2023-09-19T15:02:06;100313.00;;;28.20
12061;BMP180;6091;51.432;6.880;2023-09-19T15:04:35;100315.00;;;28.20
12061;BMP180;6091;51.432;6.880;2023-09-19T15:07:04;100313.00;;;28.20
12061;BMP180;6091;51.432;6.880;2023-09-19T15:09:31;100306.00;;;28.10
12061;BMP180;6091;51.432;6.880;2023-09-19T15:12:00;100309.00;;;28.10
12061;BMP180;6091;51.432;6.880;2023-09-19T15:14:27;100308.00;;;28.10
12061;BMP180;6091;51.432;6.880;2023-09-19T15:16:56;100308.00;;;28.00
12061;BMP180;6091;51.432;6.880;2023-09-19T15:19:24;100316.00;;;28.00